Time;durP1;ratioP1;P1;durP2;ratioP2;P2;SDS_P1;SDS_P2;PMS_P1;PMS_P2;Temp;Humidity;BMP_temperature;BMP_pressure;BME280_temperature;BME280_humidity;BME280_pressure;Samples;Min_cycle;Max_cycle;Signal;HPM_P1;HPM_P2
2022/09/19 00:00:14;;;;;;;0.00;0.00;;;;;;;8.55;100.00;102003.56;10421981;28;20515;-78
2022/09/19 00:05:16;;;;;;;0.00;0.00;;;;;;;8.60;100.00;101996.09;10422351;28;20044;-78
2022/09/19 00:10:17;;;;;;;0.00;0.00;;;;;;;8.56;100.00;101998.50;10420883;28;20135;-77
2022/09/19 00:15:22;;;;;;;0.28;0.10;;;;;;;8.60;100.00;101991.84;10421518;28;20485;-77
2022/09/19 00:20:23;;;;;;;0.20;0.10;;;;;;;8.67;100.00;101999.06;10422253;28;20046;-77
2022/09/19 00:25:25;;;;;;;0.00;0.00;;;;;;;8.68;100.00;101995.69;10445783;28;20049;-78
2022/09/19 00:30:27;;;;;;;0.00;0.00;;;;;;;8.69;100.00;102001.69;10444152;28;20068;-77
2022/09/19 00:35:31;;;;;;;0.05;0.05;;;;;;;8.59;100.00;101981.50;10443867;28;20041;-77
2022/09/19 00:40:32;;;;;;;0.00;0.00;;;;;;;8.55;100.00;101983.88;10447903;28;20033;-77
2022/09/19 00:45:35;;;;;;;0.40;0.08;;;;;;;8.50;100.00;101994.72;10492998;28;20455;-78
2022/09/19 00:50:39;;;;;;;0.13;0.13;;;;;;;8.59;100.00;101999.47;10450064;28;20484;-77
2022/09/19 00:55:40;;;;;;;0.00;0.00;;;;;;;8.71;100.00;101994.94;10443598;28;20077;-77
2022/09/19 01:00:42;;;;;;;0.20;0.00;;;;;;;8.74;100.00;102010.53;10401829;28;20092;-78
2022/09/19 01:06:23;;;;;;;0.22;0.22;;;;;;;8.91;100.00;101998.53;10401589;28;20050;-76
2022/09/19 01:11:40;;;;;;;0.70;0.17;;;;;;;9.09;100.00;101990.88;10402216;28;20515;-77
2022/09/19 01:16:50;;;;;;;0.00;0.00;;;;;;;8.97;100.00;101987.69;10401157;28;20054;-77
2022/09/19 01:22:03;;;;;;;0.85;0.10;;;;;;;8.88;100.00;101973.56;10417464;28;20046;-77
2022/09/19 01:27:27;;;;;;;1.73;0.60;;;;;;;8.77;100.00;101959.28;10402520;28;20065;-77
2022/09/19 01:32:34;;;;;;;0.00;0.00;;;;;;;8.75;100.00;101960.88;10417161;28;20100;-77
2022/09/19 01:37:45;;;;;;;2.83;0.22;;;;;;;8.79;100.00;101954.22;10416738;28;20042;-77
2022/09/19 01:42:56;;;;;;;0.15;0.00;;;;;;;8.76;100.00;101957.53;10418021;28;20045;-77
2022/09/19 01:48:05;;;;;;;0.00;0.00;;;;;;;8.77;100.00;101974.69;10415720;28;20095;-77
2022/09/19 01:53:21;;;;;;;0.15;0.08;;;;;;;9.01;100.00;101979.31;10417427;28;20046;-77
2022/09/19 01:58:51;;;;;;;0.00;0.00;;;;;;;9.10;100.00;101984.00;10415155;28;20045;-77
2022/09/19 02:03:56;;;;;;;;;;;;;;;9.07;100.00;101987.31;10416102;28;20136;-77
2022/09/19 02:09:13;;;;;;;4.68;0.47;;;;;;;9.18;100.00;101993.91;10415568;28;19944;-78
2022/09/19 02:14:26;;;;;;;0.00;0.00;;;;;;;9.11;100.00;101991.81;10415658;28;20571;-77
2022/09/19 02:19:57;;;;;;;0.10;0.00;;;;;;;9.15;100.00;102004.00;10400495;28;20045;-77
2022/09/19 02:25:03;;;;;;;0.00;0.00;;;;;;;9.10;100.00;102005.47;10415238;28;20068;-77
2022/09/19 02:30:08;;;;;;;0.00;0.00;;;;;;;9.05;100.00;102004.34;10398763;28;20045;-78
2022/09/19 02:35:50;;;;;;;0.47;0.30;;;;;;;9.01;100.00;102011.03;10399070;28;20049;-77
2022/09/19 02:41:01;;;;;;;0.00;0.00;;;;;;;9.06;100.00;102018.97;10195180;29;20154;-77
2022/09/19 02:46:11;;;;;;;0.00;0.00;;;;;;;9.00;100.00;102023.81;10397785;28;20069;-77
2022/09/19 02:51:21;;;;;;;;;;;;;;;9.02;100.00;102022.22;10414965;28;20104;-78
2022/09/19 02:56:32;;;;;;;0.43;0.28;;;;;;;8.95;100.00;102038.13;10414526;28;20410;-77
2022/09/19 03:01:38;;;;;;;0.00;0.00;;;;;;;8.94;100.00;102044.06;10422976;28;20461;-78
2022/09/19 03:06:53;;;;;;;0.00;0.00;;;;;;;9.00;100.00;102044.38;10411217;28;20417;-76
2022/09/19 03:12:02;;;;;;;0.75;0.70;;;;;;;9.06;100.00;102044.69;10428904;28;20096;-77
2022/09/19 03:17:04;;;;;;;0.00;0.00;;;;;;;8.85;100.00;102042.78;10395226;28;20055;-77
2022/09/19 03:22:06;;;;;;;0.03;0.03;;;;;;;9.04;100.00;102052.31;10411595;28;20045;-77
2022/09/19 03:27:08;;;;;;;0.10;0.10;;;;;;;9.03;100.00;102055.69;10427521;28;20068;-78
2022/09/19 03:32:11;;;;;;;0.22;0.15;;;;;;;8.98;100.00;102051.13;10419993;28;20120;-77
2022/09/19 03:37:13;;;;;;;0.00;0.00;;;;;;;8.96;100.00;102058.75;10427623;28;20440;-77
2022/09/19 03:42:15;;;;;;;0.10;0.10;;;;;;;9.03;100.00;102070.25;10427093;28;20067;-78
2022/09/19 03:48:08;;;;;;;0.00;0.00;;;;;;;8.96;100.00;102068.16;10427191;28;20037;-77
2022/09/19 03:53:09;;;;;;;0.00;0.00;;;;;;;8.96;100.00;102075.88;10427107;28;20049;-77
2022/09/19 03:58:12;;;;;;;0.22;0.20;;;;;;;9.02;100.00;102083.91;10426846;28;20049;-77
2022/09/19 04:03:14;;;;;;;1.92;0.30;;;;;;;9.09;100.00;102091.13;10426533;28;20056;-77
2022/09/19 04:08:16;;;;;;;0.20;0.20;;;;;;;9.00;100.00;102091.53;10426534;28;20041;-77
2022/09/19 04:13:20;;;;;;;0.22;0.15;;;;;;;9.03;100.00;102095.97;10421466;28;20597;-77
2022/09/19 04:18:22;;;;;;;0.00;0.00;;;;;;;8.99;100.00;102100.06;10420321;28;20049;-78
2022/09/19 04:23:25;;;;;;;0.00;0.00;;;;;;;9.01;100.00;102107.84;10420952;28;20056;-77
2022/09/19 04:28:46;;;;;;;0.25;0.20;;;;;;;9.05;100.00;102109.75;10421665;28;20045;-77
2022/09/19 04:33:48;;;;;;;0.00;0.00;;;;;;;9.00;100.00;102106.06;10403431;28;20060;-77
2022/09/19 04:38:52;;;;;;;0.47;0.22;;;;;;;9.03;100.00;102106.25;10418858;28;20073;-78
2022/09/19 04:43:59;;;;;;;0.00;0.00;;;;;;;8.95;100.00;102110.09;10404246;28;20045;-78
2022/09/19 04:49:09;;;;;;;0.00;0.00;;;;;;;8.97;100.00;102122.22;10418758;28;20069;-78
2022/09/19 04:54:14;;;;;;;0.00;0.00;;;;;;;9.00;100.00;102126.63;10402221;28;20140;-77
2022/09/19 04:59:18;;;;;;;0.13;0.00;;;;;;;9.01;100.00;102130.97;10419260;28;20042;-77
2022/09/19 05:04:19;;;;;;;0.00;0.00;;;;;;;9.01;100.00;102120.69;10401937;28;20099;-78
2022/09/19 05:09:24;;;;;;;0.10;0.00;;;;;;;8.94;100.00;102116.03;10403076;28;20140;-77
2022/09/19 05:14:46;;;;;;;0.00;0.00;;;;;;;8.87;100.00;102120.88;10418273;28;20463;-77
2022/09/19 05:19:49;;;;;;;1.17;0.30;;;;;;;8.90;100.00;102135.56;10417797;28;20041;-78
2022/09/19 05:24:52;;;;;;;0.00;0.00;;;;;;;8.80;100.00;102128.16;10417550;28;20045;-77
2022/09/19 05:29:55;;;;;;;0.05;0.00;;;;;;;8.77;100.00;102133.16;10401581;28;20041;-78
2022/09/19 05:35:00;;;;;;;0.00;0.00;;;;;;;8.72;100.00;102138.03;10417212;28;20049;-78
2022/09/19 05:40:28;;;;;;;;;;;;;;;8.85;100.00;102143.03;10400658;28;20397;-78
2022/09/19 05:45:40;;;;;;;0.10;0.10;;;;;;;9.01;100.00;102154.97;10400505;28;19921;-78
2022/09/19 05:50:43;;;;;;;0.00;0.00;;;;;;;9.16;100.00;102149.75;10400545;28;20045;-77
2022/09/19 05:55:46;;;;;;;0.38;0.10;;;;;;;9.33;100.00;102153.19;10416339;28;20065;-77
2022/09/19 06:01:07;;;;;;;1.77;1.05;;;;;;;9.46;100.00;102144.44;10417308;28;20092;-77
2022/09/19 06:13:17;;;;;;;0.00;0.00;;;;;;;10.16;100.00;102125.50;10417896;28;20029;-77
2022/09/19 06:18:19;;;;;;;0.00;0.00;;;;;;;10.45;100.00;102115.72;10415543;28;20046;-78
2022/09/19 06:23:27;;;;;;;0.00;0.00;;;;;;;10.63;100.00;102089.00;10398940;28;20566;-77
2022/09/19 06:28:28;;;;;;;0.00;0.00;;;;;;;10.86;100.00;102073.66;10415294;28;20041;-77
2022/09/19 06:33:40;;;;;;;0.00;0.00;;;;;;;10.97;100.00;102067.28;10398443;28;20041;-78
2022/09/19 06:38:48;;;;;;;0.00;0.00;;;;;;;11.26;100.00;102049.59;10415461;28;20050;-78
2022/09/19 06:44:07;;;;;;;0.00;0.00;;;;;;;11.42;100.00;101979.72;10401971;28;20073;-78
2022/09/19 06:49:27;;;;;;;0.00;0.00;;;;;;;11.76;100.00;101982.75;10447486;28;20054;-78
2022/09/19 06:54:41;;;;;;;0.00;0.00;;;;;;;12.01;100.00;101974.25;10442841;28;20493;-77
2022/09/19 06:59:42;;;;;;;0.00;0.00;;;;;;;12.15;100.00;101959.25;10414703;28;20587;-77
2022/09/19 07:04:45;;;;;;;0.00;0.00;;;;;;;12.40;100.00;101954.09;10381863;28;20041;-77
2022/09/19 07:10:07;;;;;;;0.20;0.10;;;;;;;12.58;100.00;101944.38;10399217;28;20045;-77
2022/09/19 07:15:09;;;;;;;0.00;0.00;;;;;;;12.89;100.00;101947.09;10414192;28;20053;-78
2022/09/19 07:20:11;;;;;;;0.00;0.00;;;;;;;13.12;100.00;101943.56;10413664;28;20067;-77
2022/09/19 07:25:39;;;;;;;0.15;0.15;;;;;;;13.22;100.00;101946.47;10414101;28;20050;-78
2022/09/19 07:30:48;;;;;;;0.00;0.00;;;;;;;13.74;100.00;101929.06;10397516;28;20493;-78
2022/09/19 07:35:56;;;;;;;0.03;0.00;;;;;;;14.17;100.00;101935.50;10382052;28;20104;-78
2022/09/19 07:41:01;;;;;;;0.00;0.00;;;;;;;14.12;100.00;101925.00;10414294;28;20084;-78
2022/09/19 07:46:19;;;;;;;0.00;0.00;;;;;;;14.43;100.00;101930.13;10398635;28;20452;-78
2022/09/19 07:51:39;;;;;;;;;;;;;;;14.68;100.00;101918.69;10409300;28;20042;-79
2022/09/19 07:56:43;;;;;;;0.15;0.15;;;;;;;14.55;100.00;101925.28;10421862;28;19975;-78
2022/09/19 08:01:46;;;;;;;0.00;0.00;;;;;;;14.00;100.00;101936.72;10404358;28;20507;-78
2022/09/19 08:07:05;;;;;;;0.15;0.15;;;;;;;14.51;100.00;101936.38;10421862;28;20042;-78
2022/09/19 08:12:11;;;;;;;0.08;0.08;;;;;;;14.96;100.00;101914.19;10420792;28;20041;-78
2022/09/19 08:17:19;;;;;;;0.00;0.00;;;;;;;14.81;100.00;101919.88;10404328;28;20136;-78
2022/09/19 08:22:22;;;;;;;0.00;0.00;;;;;;;14.73;100.00;101917.09;10403842;28;20519;-77
2022/09/19 08:27:30;;;;;;;0.10;0.10;;;;;;;15.41;100.00;101917.81;10404446;28;20053;-78
2022/09/19 08:32:33;;;;;;;0.05;0.03;;;;;;;14.80;100.00;101927.63;10403555;28;20409;-78
2022/09/19 08:37:39;;;;;;;0.00;0.00;;;;;;;14.40;100.00;101937.84;10419268;28;20052;-78
2022/09/19 08:43:20;;;;;;;0.43;0.17;;;;;;;14.44;100.00;101945.69;10419262;28;20054;-77
2022/09/19 08:48:29;;;;;;;0.00;0.00;;;;;;;15.00;100.00;101938.50;10400447;28;20077;-79
2022/09/19 08:53:36;;;;;;;0.10;0.10;;;;;;;15.02;100.00;101936.81;10418885;28;20585;-78
2022/09/19 08:58:45;;;;;;;0.00;0.00;;;;;;;15.16;100.00;101925.03;10402333;28;20041;-78
2022/09/19 09:04:04;;;;;;;0.20;0.20;;;;;;;15.86;100.00;101932.66;10402919;28;20049;-78
2022/09/19 09:09:09;;;;;;;3.03;0.70;;;;;;;15.48;100.00;101930.09;10418739;28;20124;-78
2022/09/19 09:14:33;;;;;;;0.00;0.00;;;;;;;15.47;100.00;101936.13;10401551;28;20050;-77
2022/09/19 09:26:36;;;;;;;0.00;0.00;;;;;;;16.05;100.00;101926.94;10418995;28;20029;-76
2022/09/19 09:31:57;;;;;;;0.00;0.00;;;;;;;15.46;100.00;101926.56;10401395;28;20045;-76
2022/09/19 09:37:19;;;;;;;1.25;0.35;;;;;;;16.08;100.00;101917.47;10418403;28;20049;-77
2022/09/19 09:42:38;;;;;;;0.17;0.17;;;;;;;16.58;100.00;101918.38;10400916;28;20037;-78
2022/09/19 09:48:05;;;;;;;0.00;0.00;;;;;;;15.76;100.00;101924.59;10385119;28;20541;-77
2022/09/19 09:53:31;;;;;;;0.00;0.00;;;;;;;15.50;100.00;101922.31;10418261;28;20037;-76
2022/09/19 09:58:42;;;;;;;0.00;0.00;;;;;;;15.94;100.00;101925.00;10415930;28;20042;-77
2022/09/19 10:04:02;;;;;;;0.00;0.00;;;;;;;16.39;100.00;101910.25;10416017;28;20053;-76
2022/09/19 10:09:18;;;;;;;0.10;0.08;;;;;;;15.60;100.00;101910.44;10400294;28;20041;-76
2022/09/19 10:14:31;;;;;;;2.67;0.65;;;;;;;15.96;100.00;101918.13;10399163;28;20053;-77
2022/09/19 10:20:01;;;;;;;2.00;1.15;;;;;;;15.34;100.00;101910.72;10399399;28;20452;-76
2022/09/19 10:25:13;;;;;;;0.57;0.20;;;;;;;15.45;100.00;101917.00;10399619;28;20061;-78
2022/09/19 10:30:26;;;;;;;0.00;0.00;;;;;;;16.35;100.00;101911.03;10400011;28;20118;-78
2022/09/19 10:35:34;;;;;;;0.00;0.00;;;;;;;16.82;100.00;101902.31;10398364;28;20559;-77
2022/09/19 10:40:55;;;;;;;0.10;0.10;;;;;;;16.92;100.00;101900.72;10398767;28;20091;-78
2022/09/19 10:46:05;;;;;;;0.00;0.00;;;;;;;15.30;100.00;101898.53;10398575;28;20052;-78
2022/09/19 10:51:13;;;;;;;0.00;0.00;;;;;;;16.17;100.00;101904.66;10398679;28;20042;-78
2022/09/19 10:56:33;;;;;;;1.75;0.30;;;;;;;16.67;100.00;101902.06;10414392;28;20092;-77
2022/09/19 11:01:38;;;;;;;0.00;0.00;;;;;;;16.36;100.00;101907.59;10399573;28;20037;-77
2022/09/19 11:07:02;;;;;;;1.80;0.30;;;;;;;16.62;100.00;101909.78;10397979;28;20115;-77
2022/09/19 11:12:10;;;;;;;0.00;0.00;;;;;;;17.96;100.00;101900.44;10415891;28;20033;-77
2022/09/19 11:17:43;;;;;;;0.33;0.20;;;;;;;15.74;100.00;101927.19;10414044;28;20456;-78
2022/09/19 11:23:21;;;;;;;0.00;0.00;;;;;;;17.25;100.00;101907.31;10403093;28;20053;-78
2022/09/19 11:28:43;;;;;;;0.43;0.40;;;;;;;16.43;100.00;101909.44;10406309;28;20452;-78
2022/09/19 11:33:57;;;;;;;1.55;0.45;;;;;;;16.20;100.00;101910.75;10405583;28;20053;-79
2022/09/19 11:39:37;;;;;;;0.03;0.00;;;;;;;15.98;100.00;101915.53;10421578;28;20053;-77
2022/09/19 11:45:09;;;;;;;0.10;0.10;;;;;;;14.51;100.00;101951.94;10421349;28;20041;-76
2022/09/19 11:50:28;;;;;;;0.00;0.00;;;;;;;13.90;100.00;101977.91;10442882;28;20037;-77
2022/09/19 11:55:55;;;;;;;0.35;0.10;;;;;;;14.66;100.00;101951.50;10490370;28;20051;-77
2022/09/19 12:01:19;;;;;;;0.00;0.00;;;;;;;15.42;100.00;101944.63;10460362;28;20045;-76
2022/09/19 12:06:53;;;;;;;0.65;0.60;;;;;;;15.01;100.00;101935.03;10429935;28;20369;-76
2022/09/19 12:12:03;;;;;;;6.15;0.13;;;;;;;15.94;100.00;101931.94;10436585;28;20042;-76
2022/09/19 12:17:26;;;;;;;0.00;0.00;;;;;;;16.49;100.00;101908.69;10421221;28;20077;-77
2022/09/19 12:22:43;;;;;;;0.20;0.15;;;;;;;16.15;100.00;101898.56;10390221;28;20045;-77
2022/09/19 12:27:52;;;;;;;0.20;0.10;;;;;;;16.54;100.00;101900.97;10403397;28;20054;-77
2022/09/19 12:33:06;;;;;;;0.00;0.00;;;;;;;16.68;100.00;101898.63;10418943;28;20046;-75
2022/09/19 12:38:23;;;;;;;0.10;0.10;;;;;;;16.91;100.00;101891.16;10403302;28;20052;-76
2022/09/19 12:43:47;;;;;;;0.20;0.20;;;;;;;16.81;100.00;101884.94;10421789;28;20045;-76
2022/09/19 12:49:02;;;;;;;0.00;0.00;;;;;;;17.08;100.00;101878.41;10429615;28;20411;-77
2022/09/19 12:54:36;;;;;;;0.40;0.10;;;;;;;17.37;100.00;101881.44;10453945;28;20088;-77
2022/09/19 12:59:39;;;;;;;0.22;0.03;;;;;;;17.25;100.00;101870.84;10461066;28;20045;-76
2022/09/19 13:05:07;;;;;;;0.00;0.00;;;;;;;17.32;100.00;101872.69;10461199;28;20123;-75
2022/09/19 13:10:37;;;;;;;0.00;0.00;;;;;;;17.34;100.00;101876.19;10442922;28;20127;-75
2022/09/19 13:15:58;;;;;;;0.00;0.00;;;;;;;15.93;100.00;101896.38;10460977;28;20127;-76
2022/09/19 13:26:36;;;;;;;0.32;0.10;;;;;;;15.77;100.00;101909.03;10451192;28;20131;-76
2022/09/19 13:31:52;;;;;;;0.15;0.15;;;;;;;15.03;100.00;101923.88;10400705;28;20045;-76
2022/09/19 13:36:54;;;;;;;0.10;0.10;;;;;;;15.04;100.00;101933.41;10418478;28;20053;-76
2022/09/19 13:41:56;;;;;;;0.10;0.08;;;;;;;15.96;100.00;101927.66;10418013;28;20065;-77
2022/09/19 13:47:07;;;;;;;0.00;0.00;;;;;;;15.66;100.00;101928.75;10400231;28;20080;-77
2022/09/19 13:52:20;;;;;;;0.00;0.00;;;;;;;15.68;100.00;101932.22;10418112;28;20041;-77
2022/09/19 13:57:28;;;;;;;1.88;0.30;;;;;;;15.36;100.00;101942.81;10417503;28;20038;-76
2022/09/19 14:02:41;;;;;;;0.00;0.00;;;;;;;15.34;100.00;101937.56;10417223;28;20052;-76
2022/09/19 14:07:59;;;;;;;0.00;0.00;;;;;;;15.61;100.00;101930.34;10415905;28;20084;-76
2022/09/19 14:13:21;;;;;;;0.03;0.00;;;;;;;15.94;100.00;101924.13;10416681;28;20120;-76
2022/09/19 14:18:49;;;;;;;0.50;0.30;;;;;;;16.08;100.00;101919.22;10416569;28;20485;-75
2022/09/19 14:23:58;;;;;;;0.00;0.00;;;;;;;17.11;100.00;101915.78;10441967;28;20095;-76
2022/09/19 14:29:26;;;;;;;0.00;0.00;;;;;;;16.74;100.00;101898.72;10457679;28;20098;-76
2022/09/19 14:34:51;;;;;;;0.10;0.10;;;;;;;16.46;100.00;101911.22;10446693;28;20115;-76
2022/09/19 14:40:09;;;;;;;0.00;0.00;;;;;;;16.32;100.00;101911.84;10416173;28;20041;-77
2022/09/19 14:45:30;;;;;;;0.00;0.00;;;;;;;16.35;100.00;101900.63;10417042;28;20049;-76
2022/09/19 14:50:38;;;;;;;0.00;0.00;;;;;;;16.58;100.00;101902.75;10398176;28;20465;-76
2022/09/19 14:55:45;;;;;;;0.00;0.00;;;;;;;16.81;100.00;101908.38;10398137;28;20124;-76
2022/09/19 15:01:18;;;;;;;0.17;0.00;;;;;;;16.80;100.00;101909.22;10398497;28;20121;-75
2022/09/19 15:06:31;;;;;;;0.00;0.00;;;;;;;15.77;100.00;101916.84;10397621;28;20385;-75
2022/09/19 15:11:32;;;;;;;0.00;0.00;;;;;;;15.66;100.00;101919.22;10414153;28;20136;-75
2022/09/19 15:16:34;;;;;;;0.00;0.00;;;;;;;16.12;100.00;101914.09;10415518;28;20088;-76
2022/09/19 15:21:37;;;;;;;0.00;0.00;;;;;;;16.47;100.00;101908.66;10397897;28;20595;-76
2022/09/19 15:26:51;;;;;;;0.00;0.00;;;;;;;15.91;100.00;101929.25;10415263;28;20129;-77
2022/09/19 15:32:13;;;;;;;0.00;0.00;;;;;;;14.93;100.00;101931.41;10398188;28;20117;-77
2022/09/19 15:37:17;;;;;;;0.00;0.00;;;;;;;14.12;100.00;101944.81;10415214;28;20049;-76
2022/09/19 15:42:19;;;;;;;0.20;0.10;;;;;;;14.06;100.00;101965.38;10397384;28;20485;-75
2022/09/19 15:47:28;;;;;;;0.00;0.00;;;;;;;14.15;100.00;101963.06;10414807;28;20041;-75
2022/09/19 15:52:32;;;;;;;;;;;;;;;14.22;100.00;101966.72;10415475;28;20033;-76
2022/09/19 15:57:49;;;;;;;0.00;0.00;;;;;;;14.11;100.00;101966.41;10414355;28;19920;-75
2022/09/19 16:02:58;;;;;;;0.43;0.20;;;;;;;14.02;100.00;101961.84;10415447;28;20061;-75
2022/09/19 16:13:42;;;;;;;0.00;0.00;;;;;;;14.40;100.00;101977.59;10404001;28;20141;-76
2022/09/19 16:18:48;;;;;;;0.10;0.10;;;;;;;14.50;100.00;101983.88;10422525;28;20047;-76
2022/09/19 16:23:51;;;;;;;1.23;1.13;;;;;;;14.52;100.00;101969.25;10403748;28;20045;-76
2022/09/19 16:28:54;;;;;;;0.32;0.20;;;;;;;14.51;100.00;101984.78;10403454;28;20045;-76
2022/09/19 16:34:04;;;;;;;0.00;0.00;;;;;;;14.07;100.00;101991.34;10432332;28;20057;-75
2022/09/19 16:39:09;;;;;;;0.20;0.20;;;;;;;13.85;100.00;102000.22;10438668;28;20508;-76
2022/09/19 16:44:16;;;;;;;0.25;0.17;;;;;;;13.95;100.00;101991.88;10451573;28;20497;-76
2022/09/19 16:49:18;;;;;;;0.38;0.28;;;;;;;14.00;100.00;102006.69;10420631;28;20125;-77
2022/09/19 16:54:20;;;;;;;0.00;0.00;;;;;;;13.98;100.00;102005.75;10421615;28;20060;-77
2022/09/19 16:59:27;;;;;;;0.00;0.00;;;;;;;13.86;100.00;101986.44;10420753;28;20100;-77
2022/09/19 17:04:28;;;;;;;0.00;0.00;;;;;;;13.60;100.00;101988.22;10418485;28;20460;-77
2022/09/19 17:09:31;;;;;;;0.10;0.10;;;;;;;13.31;100.00;101990.75;10419692;28;20073;-77
2022/09/19 17:14:32;;;;;;;0.52;0.43;;;;;;;13.15;100.00;102004.88;10419594;28;20069;-77
2022/09/19 17:19:34;;;;;;;0.00;0.00;;;;;;;12.96;100.00;102009.47;10418744;28;20125;-77
2022/09/19 17:24:35;;;;;;;2.30;2.10;;;;;;;12.81;100.00;102024.44;10419835;28;20069;-77
2022/09/19 17:29:37;;;;;;;0.00;0.00;;;;;;;12.61;100.00;102034.09;10418513;28;20108;-76
2022/09/19 17:34:39;;;;;;;0.35;0.05;;;;;;;12.69;100.00;102030.97;10419449;28;20049;-77
2022/09/19 17:39:41;;;;;;;0.00;0.00;;;;;;;12.62;100.00;102034.13;10418142;28;20128;-77
2022/09/19 17:44:44;;;;;;;0.10;0.10;;;;;;;12.61;100.00;102032.41;10418239;28;20045;-76
2022/09/19 17:49:46;;;;;;;0.00;0.00;;;;;;;12.43;100.00;102037.78;10400498;28;20045;-76
2022/09/19 17:54:47;;;;;;;0.00;0.00;;;;;;;12.13;100.00;102043.56;10418187;28;20489;-76
2022/09/19 17:59:49;;;;;;;0.00;0.00;;;;;;;12.02;100.00;102048.34;10416205;28;20053;-76
2022/09/19 18:04:50;;;;;;;0.00;0.00;;;;;;;11.81;100.00;102060.34;10416011;28;20140;-76
2022/09/19 18:10:18;;;;;;;0.10;0.10;;;;;;;11.47;100.00;102069.34;10417202;28;20050;-76
2022/09/19 18:15:20;;;;;;;0.00;0.00;;;;;;;11.24;100.00;102092.47;10416874;28;20141;-76
2022/09/19 18:20:22;;;;;;;0.28;0.28;;;;;;;11.02;100.00;102095.88;10417720;28;20116;-76
2022/09/19 18:25:28;;;;;;;0.00;0.00;;;;;;;10.91;100.00;102108.25;10398898;28;20523;-76
2022/09/19 18:30:30;;;;;;;0.00;0.00;;;;;;;10.90;100.00;102107.38;10414389;28;20111;-76
2022/09/19 18:35:32;;;;;;;0.00;0.00;;;;;;;10.75;100.00;102112.75;10398846;28;20049;-76
2022/09/19 18:41:00;;;;;;;0.20;0.03;;;;;;;10.51;100.00;102120.25;10416617;28;20041;-76
2022/09/19 18:46:10;;;;;;;0.00;0.00;;;;;;;10.13;100.00;102127.94;10417110;28;20108;-76
2022/09/19 18:51:13;;;;;;;;;;;;;;;10.15;100.00;102126.31;10398887;28;20052;-76
2022/09/19 18:56:15;;;;;;;0.10;0.10;;;;;;;10.12;100.00;102144.19;10398167;28;19921;-75
2022/09/19 19:01:19;;;;;;;0.00;0.00;;;;;;;10.19;100.00;102157.34;10415595;28;20046;-77
2022/09/19 19:06:22;;;;;;;0.00;0.00;;;;;;;10.27;100.00;102153.47;10399113;28;20049;-77
2022/09/19 19:11:33;;;;;;;0.03;0.03;;;;;;;10.40;100.00;102157.53;10414066;28;20544;-77
2022/09/19 19:16:36;;;;;;;0.08;0.08;;;;;;;10.36;100.00;102148.75;10399030;28;20536;-76
2022/09/19 19:21:40;;;;;;;0.00;0.00;;;;;;;10.29;100.00;102144.97;10415183;28;20051;-78
2022/09/19 19:26:42;;;;;;;0.10;0.10;;;;;;;10.25;100.00;102147.34;10413915;28;20145;-77
2022/09/19 19:31:43;;;;;;;0.20;0.10;;;;;;;10.16;100.00;102155.53;10414929;28;20077;-77
2022/09/19 19:36:46;;;;;;;0.88;0.38;;;;;;;10.08;100.00;102155.16;10414989;28;20132;-76
2022/09/19 19:41:48;;;;;;;0.00;0.00;;;;;;;9.82;100.00;102159.91;10417516;28;20045;-77
2022/09/19 19:46:49;;;;;;;0.10;0.10;;;;;;;9.61;100.00;102174.28;10423241;28;20076;-76
2022/09/19 19:51:51;;;;;;;0.20;0.10;;;;;;;9.48;100.00;102183.06;10421422;28;20049;-76
2022/09/19 19:56:52;;;;;;;1.05;0.15;;;;;;;9.23;100.00;102201.50;10422284;28;20096;-77
2022/09/19 20:01:54;;;;;;;0.00;0.00;;;;;;;8.89;100.00;102211.78;10421080;28;20136;-76
2022/09/19 20:06:55;;;;;;;0.00;0.00;;;;;;;9.05;100.00;102217.72;10421944;28;20404;-77
2022/09/19 20:11:57;;;;;;;0.00;0.00;;;;;;;9.10;100.00;102205.13;10405592;28;20043;-77
2022/09/19 20:16:59;;;;;;;0.00;0.00;;;;;;;8.95;100.00;102215.47;10421514;28;20049;-77
2022/09/19 20:22:01;;;;;;;0.00;0.00;;;;;;;8.91;100.00;102214.44;10421310;28;20045;-77
2022/09/19 20:27:04;;;;;;;0.00;0.00;;;;;;;8.77;100.00;102215.38;10419838;28;20049;-77
2022/09/19 20:32:10;;;;;;;0.00;0.00;;;;;;;8.72;100.00;102220.25;10421008;28;20045;-76
2022/09/19 20:37:12;;;;;;;0.00;0.00;;;;;;;8.62;100.00;102231.72;10419565;28;20473;-76
2022/09/19 20:42:13;;;;;;;0.05;0.05;;;;;;;8.49;100.00;102235.28;10402911;28;20045;-77
2022/09/19 20:47:21;;;;;;;0.35;0.22;;;;;;;8.70;100.00;102242.41;10420303;28;20049;-77
2022/09/19 20:52:22;;;;;;;0.00;0.00;;;;;;;8.65;100.00;102248.97;10420002;28;20048;-78
2022/09/19 20:57:24;;;;;;;0.08;0.08;;;;;;;8.39;100.00;102249.25;10420478;28;20132;-77
2022/09/19 21:02:26;;;;;;;1.95;0.10;;;;;;;8.35;100.00;102266.97;10418510;28;20042;-77
2022/09/19 21:07:28;;;;;;;1.02;0.35;;;;;;;8.23;100.00;102268.03;10420841;28;20055;-77
2022/09/19 21:12:30;;;;;;;0.00;0.00;;;;;;;8.04;100.00;102270.34;10419321;28;20041;-77
2022/09/19 21:17:48;;;;;;;0.25;0.05;;;;;;;7.80;100.00;102280.06;10420418;28;20484;-77
2022/09/19 21:22:49;;;;;;;0.00;0.00;;;;;;;8.20;100.00;102296.13;10401292;28;20128;-77
2022/09/19 21:27:51;;;;;;;5.82;0.63;;;;;;;7.91;100.00;102295.31;10401153;28;20132;-76
2022/09/19 21:32:52;;;;;;;0.10;0.10;;;;;;;8.12;100.00;102293.91;10419838;28;20385;-76
2022/09/19 21:37:54;;;;;;;0.75;0.52;;;;;;;8.01;100.00;102290.69;10418477;28;20489;-77
2022/09/19 21:42:55;;;;;;;0.00;0.00;;;;;;;8.08;100.00;102297.94;10419396;28;20045;-76
2022/09/19 21:48:00;;;;;;;0.32;0.10;;;;;;;8.15;100.00;102300.09;10401049;28;20503;-77
2022/09/19 21:53:01;;;;;;;0.00;0.00;;;;;;;8.20;100.00;102308.94;10418941;28;20083;-76
2022/09/19 21:58:06;;;;;;;0.20;0.13;;;;;;;8.10;100.00;102309.19;10418491;28;20456;-77
2022/09/19 22:03:33;;;;;;;0.00;0.00;;;;;;;8.18;100.00;102315.66;10419778;28;20065;-77
2022/09/19 22:08:35;;;;;;;3.50;0.40;;;;;;;8.02;100.00;102307.84;10400432;28;20037;-77
2022/09/19 22:13:39;;;;;;;0.00;0.00;;;;;;;7.71;100.00;102306.94;10419030;28;20068;-78
2022/09/19 22:18:43;;;;;;;0.00;0.00;;;;;;;7.62;100.00;102312.41;10418395;28;20439;-76
2022/09/19 22:23:44;;;;;;;0.22;0.13;;;;;;;7.44;100.00;102311.25;10399193;28;20053;-78
2022/09/19 22:28:46;;;;;;;0.00;0.00;;;;;;;7.38;100.00;102326.28;10415653;28;20055;-78
2022/09/19 22:33:49;;;;;;;0.00;0.00;;;;;;;7.17;100.00;102325.81;10417575;28;20436;-78
2022/09/19 22:38:50;;;;;;;0.20;0.20;;;;;;;7.10;100.00;102332.25;10429844;28;20057;-77
2022/09/19 22:43:56;;;;;;;0.08;0.08;;;;;;;7.30;100.00;102329.25;10451547;28;20034;-77
2022/09/19 22:48:58;;;;;;;0.10;0.00;;;;;;;7.17;100.00;102331.84;10434109;28;20076;-77
2022/09/19 22:54:00;;;;;;;0.20;0.20;;;;;;;7.19;100.00;102340.50;10416616;28;20124;-77
2022/09/19 22:59:03;;;;;;;0.25;0.10;;;;;;;7.13;100.00;102347.81;10416704;28;20057;-77
2022/09/19 23:04:05;;;;;;;0.03;0.03;;;;;;;7.25;100.00;102356.28;10398208;28;20132;-77
2022/09/19 23:09:13;;;;;;;0.00;0.00;;;;;;;7.30;100.00;102365.16;10414204;28;20067;-77
2022/09/19 23:14:22;;;;;;;0.00;0.00;;;;;;;7.21;100.00;102362.00;10416638;28;20421;-77
2022/09/19 23:19:25;;;;;;;0.35;0.20;;;;;;;7.20;100.00;102362.78;10420183;28;20049;-76
2022/09/19 23:24:28;;;;;;;0.00;0.00;;;;;;;7.15;100.00;102370.19;10423555;28;20073;-77
2022/09/19 23:29:31;;;;;;;0.40;0.30;;;;;;;7.02;100.00;102366.75;10423450;28;20070;-78
2022/09/19 23:34:32;;;;;;;0.20;0.10;;;;;;;7.05;100.00;102379.75;10423165;28;20512;-77
2022/09/19 23:39:34;;;;;;;0.00;0.00;;;;;;;6.80;100.00;102383.31;10406480;28;20084;-76
2022/09/19 23:44:35;;;;;;;0.30;0.20;;;;;;;7.07;100.00;102388.44;10421651;28;20077;-76
2022/09/19 23:49:37;;;;;;;0.10;0.10;;;;;;;7.17;100.00;102383.13;10448676;28;20148;-77
2022/09/19 23:54:38;;;;;;;0.00;0.00;;;;;;;7.17;100.00;102470.25;10464707;28;20480;-77
2022/09/19 23:59:40;;;;;;;0.30;0.30;;;;;;;7.25;100.00;102474.22;10463476;28;20045;-77
